sensor_id;sensor_type;location;lat;lon;timestamp;P1;durP1;ratioP1;P2;durP2;ratioP2
54406;SDS011;40313;50.308;30.374;2023-02-11T00:02:08;48.00;;;24.25;;
54406;SDS011;40313;50.308;30.374;2023-02-11T00:04:35;50.22;;;26.35;;
54406;SDS011;40313;50.308;30.374;2023-02-11T00:07:01;43.53;;;25.75;;
54406;SDS011;40313;50.308;30.374;2023-02-11T00:55:56;57.35;;;26.08;;
54406;SDS011;40313;50.308;30.374;2023-02-11T00:58:23;44.47;;;22.85;;
54406;SDS011;40313;50.308;30.374;2023-02-11T01:10:36;51.05;;;24.50;;
54406;SDS011;40313;50.308;30.374;2023-02-11T01:13:03;55.00;;;25.20;;
54406;SDS011;40313;50.308;30.374;2023-02-11T01:15:30;46.80;;;25.10;;
54406;SDS011;40313;50.308;30.374;2023-02-11T01:17:58;43.05;;;24.05;;
54406;SDS011;40313;50.308;30.374;2023-02-11T01:20:25;40.10;;;22.60;;
54406;SDS011;40313;50.308;30.374;2023-02-11T01:22:53;53.50;;;25.20;;
54406;SDS011;40313;50.308;30.374;2023-02-11T01:25:19;48.50;;;26.40;;
54406;SDS011;40313;50.308;30.374;2023-02-11T01:27:47;44.95;;;24.65;;
54406;SDS011;40313;50.308;30.374;2023-02-11T01:30:14;55.90;;;23.80;;
54406;SDS011;40313;50.308;30.374;2023-02-11T01:32:40;41.80;;;25.20;;
54406;SDS011;40313;50.308;30.374;2023-02-11T01:35:07;50.78;;;26.45;;
54406;SDS011;40313;50.308;30.374;2023-02-11T01:37:34;42.15;;;24.70;;
54406;SDS011;40313;50.308;30.374;2023-02-11T01:40:01;46.00;;;24.20;;
54406;SDS011;40313;50.308;30.374;2023-02-11T01:42:29;50.33;;;25.35;;
54406;SDS011;40313;50.308;30.374;2023-02-11T01:44:59;52.20;;;26.23;;
54406;SDS011;40313;50.308;30.374;2023-02-11T01:47:29;49.50;;;25.10;;
54406;SDS011;40313;50.308;30.374;2023-02-11T01:50:33;50.03;;;24.92;;
54406;SDS011;40313;50.308;30.374;2023-02-11T01:53:02;55.20;;;25.20;;
54406;SDS011;40313;50.308;30.374;2023-02-11T01:55:42;42.15;;;25.17;;
54406;SDS011;40313;50.308;30.374;2023-02-11T01:58:27;51.80;;;26.83;;
54406;SDS011;40313;50.308;30.374;2023-02-11T02:00:56;61.45;;;27.55;;
54406;SDS011;40313;50.308;30.374;2023-02-11T02:03:23;65.63;;;27.85;;
54406;SDS011;40313;50.308;30.374;2023-02-11T02:05:51;56.13;;;26.67;;
54406;SDS011;40313;50.308;30.374;2023-02-11T02:08:22;57.33;;;26.77;;
54406;SDS011;40313;50.308;30.374;2023-02-11T02:10:56;50.25;;;24.98;;
54406;SDS011;40313;50.308;30.374;2023-02-11T02:13:25;51.92;;;27.17;;
54406;SDS011;40313;50.308;30.374;2023-02-11T02:15:52;55.60;;;27.35;;
54406;SDS011;40313;50.308;30.374;2023-02-11T02:18:31;55.13;;;29.42;;
54406;SDS011;40313;50.308;30.374;2023-02-11T02:21:09;48.55;;;26.08;;
54406;SDS011;40313;50.308;30.374;2023-02-11T02:26:59;55.80;;;26.55;;
54406;SDS011;40313;50.308;30.374;2023-02-11T02:29:44;48.85;;;26.02;;
54406;SDS011;40313;50.308;30.374;2023-02-11T02:32:37;57.75;;;27.10;;
54406;SDS011;40313;50.308;30.374;2023-02-11T02:35:21;58.60;;;27.02;;
54406;SDS011;40313;50.308;30.374;2023-02-11T02:37:55;53.70;;;25.73;;
54406;SDS011;40313;50.308;30.374;2023-02-11T02:40:33;58.90;;;27.67;;
54406;SDS011;40313;50.308;30.374;2023-02-11T02:43:04;66.70;;;28.48;;
54406;SDS011;40313;50.308;30.374;2023-02-11T02:45:34;64.55;;;28.17;;
54406;SDS011;40313;50.308;30.374;2023-02-11T02:48:02;52.70;;;27.83;;
54406;SDS011;40313;50.308;30.374;2023-02-11T02:50:30;58.13;;;27.30;;
54406;SDS011;40313;50.308;30.374;2023-02-11T02:53:03;64.10;;;30.80;;
54406;SDS011;40313;50.308;30.374;2023-02-11T02:55:44;62.97;;;28.10;;
54406;SDS011;40313;50.308;30.374;2023-02-11T02:58:26;55.97;;;30.60;;
54406;SDS011;40313;50.308;30.374;2023-02-11T03:01:07;82.82;;;31.30;;
54406;SDS011;40313;50.308;30.374;2023-02-11T03:03:42;65.55;;;32.28;;
54406;SDS011;40313;50.308;30.374;2023-02-11T03:06:16;66.53;;;32.05;;
54406;SDS011;40313;50.308;30.374;2023-02-11T03:08:52;80.40;;;31.48;;
54406;SDS011;40313;50.308;30.374;2023-02-11T03:11:25;79.25;;;35.33;;
54406;SDS011;40313;50.308;30.374;2023-02-11T03:13:54;70.05;;;32.45;;
54406;SDS011;40313;50.308;30.374;2023-02-11T03:16:23;61.13;;;33.00;;
54406;SDS011;40313;50.308;30.374;2023-02-11T03:18:54;68.95;;;34.03;;
54406;SDS011;40313;50.308;30.374;2023-02-11T03:21:24;74.82;;;33.90;;
54406;SDS011;40313;50.308;30.374;2023-02-11T03:23:52;75.80;;;33.33;;
54406;SDS011;40313;50.308;30.374;2023-02-11T03:26:22;66.82;;;34.10;;
54406;SDS011;40313;50.308;30.374;2023-02-11T06:00:53;46.65;;;26.50;;
54406;SDS011;40313;50.308;30.374;2023-02-11T06:03:20;51.63;;;24.85;;
54406;SDS011;40313;50.308;30.374;2023-02-11T06:05:46;51.20;;;24.48;;
54406;SDS011;40313;50.308;30.374;2023-02-11T06:08:14;52.08;;;24.50;;
54406;SDS011;40313;50.308;30.374;2023-02-11T06:10:43;50.20;;;24.00;;
54406;SDS011;40313;50.308;30.374;2023-02-11T06:13:10;56.78;;;24.90;;
54406;SDS011;40313;50.308;30.374;2023-02-11T06:15:36;52.45;;;26.17;;
54406;SDS011;40313;50.308;30.374;2023-02-11T06:18:03;60.88;;;27.48;;
54406;SDS011;40313;50.308;30.374;2023-02-11T06:20:30;58.60;;;26.92;;
54406;SDS011;40313;50.308;30.374;2023-02-11T06:22:56;61.95;;;26.13;;
54406;SDS011;40313;50.308;30.374;2023-02-11T06:25:24;69.30;;;30.00;;
54406;SDS011;40313;50.308;30.374;2023-02-11T06:27:51;61.15;;;26.85;;
54406;SDS011;40313;50.308;30.374;2023-02-11T06:30:17;49.10;;;26.98;;
54406;SDS011;40313;50.308;30.374;2023-02-11T06:32:44;69.55;;;26.38;;
54406;SDS011;40313;50.308;30.374;2023-02-11T06:35:10;57.53;;;27.55;;
54406;SDS011;40313;50.308;30.374;2023-02-11T06:37:37;56.50;;;26.20;;
54406;SDS011;40313;50.308;30.374;2023-02-11T06:40:04;66.25;;;26.50;;
54406;SDS011;40313;50.308;30.374;2023-02-11T06:42:33;59.15;;;27.55;;
54406;SDS011;40313;50.308;30.374;2023-02-11T06:45:02;56.13;;;26.10;;
54406;SDS011;40313;50.308;30.374;2023-02-11T06:47:30;60.47;;;27.50;;
54406;SDS011;40313;50.308;30.374;2023-02-11T06:49:56;72.55;;;29.58;;
54406;SDS011;40313;50.308;30.374;2023-02-11T06:52:23;64.25;;;28.63;;
54406;SDS011;40313;50.308;30.374;2023-02-11T06:54:49;61.53;;;28.45;;
54406;SDS011;40313;50.308;30.374;2023-02-11T06:57:16;53.92;;;27.05;;
54406;SDS011;40313;50.308;30.374;2023-02-11T06:59:44;54.83;;;28.00;;
54406;SDS011;40313;50.308;30.374;2023-02-11T07:02:10;70.75;;;28.60;;
54406;SDS011;40313;50.308;30.374;2023-02-11T07:04:37;62.25;;;30.52;;
54406;SDS011;40313;50.308;30.374;2023-02-11T07:07:03;58.22;;;26.60;;
54406;SDS011;40313;50.308;30.374;2023-02-11T07:09:30;63.17;;;29.15;;
54406;SDS011;40313;50.308;30.374;2023-02-11T07:11:56;62.50;;;28.00;;
54406;SDS011;40313;50.308;30.374;2023-02-11T07:29:04;61.13;;;29.13;;
54406;SDS011;40313;50.308;30.374;2023-02-11T07:31:30;56.30;;;25.75;;
54406;SDS011;40313;50.308;30.374;2023-02-11T07:33:59;57.85;;;26.38;;
54406;SDS011;40313;50.308;30.374;2023-02-11T07:36:27;63.85;;;28.27;;
54406;SDS011;40313;50.308;30.374;2023-02-11T07:38:55;69.05;;;30.38;;
54406;SDS011;40313;50.308;30.374;2023-02-11T07:41:22;71.78;;;29.40;;
54406;SDS011;40313;50.308;30.374;2023-02-11T07:43:50;58.13;;;30.55;;
54406;SDS011;40313;50.308;30.374;2023-02-11T07:46:17;56.45;;;28.15;;
54406;SDS011;40313;50.308;30.374;2023-02-11T07:48:45;53.58;;;28.13;;
54406;SDS011;40313;50.308;30.374;2023-02-11T07:51:14;64.28;;;28.52;;
54406;SDS011;40313;50.308;30.374;2023-02-11T07:53:42;58.83;;;28.38;;
54406;SDS011;40313;50.308;30.374;2023-02-11T07:56:10;63.33;;;28.95;;
54406;SDS011;40313;50.308;30.374;2023-02-11T07:58:38;65.90;;;31.13;;
54406;SDS011;40313;50.308;30.374;2023-02-11T08:01:06;67.70;;;29.25;;
54406;SDS011;40313;50.308;30.374;2023-02-11T08:03:34;67.70;;;30.65;;
54406;SDS011;40313;50.308;30.374;2023-02-11T08:06:02;60.53;;;29.58;;
54406;SDS011;40313;50.308;30.374;2023-02-11T08:08:30;60.05;;;30.33;;
54406;SDS011;40313;50.308;30.374;2023-02-11T08:10:57;63.17;;;31.13;;
54406;SDS011;40313;50.308;30.374;2023-02-11T08:13:23;60.58;;;30.60;;
54406;SDS011;40313;50.308;30.374;2023-02-11T08:15:51;63.03;;;30.40;;
54406;SDS011;40313;50.308;30.374;2023-02-11T08:18:17;65.75;;;28.73;;
54406;SDS011;40313;50.308;30.374;2023-02-11T08:20:44;63.97;;;28.58;;
54406;SDS011;40313;50.308;30.374;2023-02-11T08:23:10;63.55;;;29.70;;
54406;SDS011;40313;50.308;30.374;2023-02-11T08:25:38;56.95;;;28.75;;
54406;SDS011;40313;50.308;30.374;2023-02-11T08:28:04;52.10;;;26.80;;
54406;SDS011;40313;50.308;30.374;2023-02-11T08:30:33;53.97;;;26.25;;
54406;SDS011;40313;50.308;30.374;2023-02-11T08:32:59;57.70;;;27.27;;
54406;SDS011;40313;50.308;30.374;2023-02-11T08:35:26;60.92;;;28.40;;
54406;SDS011;40313;50.308;30.374;2023-02-11T08:37:53;59.33;;;26.27;;
54406;SDS011;40313;50.308;30.374;2023-02-11T08:40:19;55.38;;;29.17;;
54406;SDS011;40313;50.308;30.374;2023-02-11T08:42:47;59.08;;;27.92;;
54406;SDS011;40313;50.308;30.374;2023-02-11T08:45:14;58.72;;;28.85;;
54406;SDS011;40313;50.308;30.374;2023-02-11T08:47:40;56.30;;;27.60;;
54406;SDS011;40313;50.308;30.374;2023-02-11T08:50:07;56.42;;;28.00;;
54406;SDS011;40313;50.308;30.374;2023-02-11T08:52:34;63.50;;;29.35;;
54406;SDS011;40313;50.308;30.374;2023-02-11T08:55:01;53.38;;;28.73;;
54406;SDS011;40313;50.308;30.374;2023-02-11T08:57:28;55.13;;;30.25;;
54406;SDS011;40313;50.308;30.374;2023-02-11T08:59:55;64.75;;;30.10;;
54406;SDS011;40313;50.308;30.374;2023-02-11T09:02:22;70.03;;;29.77;;
54406;SDS011;40313;50.308;30.374;2023-02-11T09:04:48;53.83;;;29.60;;
54406;SDS011;40313;50.308;30.374;2023-02-11T09:07:15;65.07;;;29.50;;
54406;SDS011;40313;50.308;30.374;2023-02-11T09:09:41;50.40;;;27.77;;
54406;SDS011;40313;50.308;30.374;2023-02-11T09:12:08;57.63;;;29.73;;
54406;SDS011;40313;50.308;30.374;2023-02-11T09:14:35;50.90;;;27.63;;
54406;SDS011;40313;50.308;30.374;2023-02-11T09:17:03;60.25;;;26.38;;
54406;SDS011;40313;50.308;30.374;2023-02-11T09:19:30;62.63;;;29.75;;
54406;SDS011;40313;50.308;30.374;2023-02-11T09:21:56;64.88;;;31.63;;
54406;SDS011;40313;50.308;30.374;2023-02-11T09:24:23;70.72;;;32.88;;
54406;SDS011;40313;50.308;30.374;2023-02-11T09:26:50;56.85;;;30.52;;
54406;SDS011;40313;50.308;30.374;2023-02-11T09:29:16;58.85;;;30.33;;
54406;SDS011;40313;50.308;30.374;2023-02-11T09:31:44;57.95;;;30.40;;
54406;SDS011;40313;50.308;30.374;2023-02-11T09:34:12;56.03;;;32.10;;
54406;SDS011;40313;50.308;30.374;2023-02-11T09:36:39;58.83;;;31.77;;
54406;SDS011;40313;50.308;30.374;2023-02-11T09:39:07;66.13;;;32.35;;
54406;SDS011;40313;50.308;30.374;2023-02-11T09:44:28;65.95;;;31.83;;
54406;SDS011;40313;50.308;30.374;2023-02-11T09:46:58;61.92;;;33.55;;
54406;SDS011;40313;50.308;30.374;2023-02-11T09:49:32;57.40;;;31.98;;
54406;SDS011;40313;50.308;30.374;2023-02-11T09:52:03;57.25;;;32.03;;
54406;SDS011;40313;50.308;30.374;2023-02-11T09:54:35;66.47;;;33.08;;
54406;SDS011;40313;50.308;30.374;2023-02-11T09:57:08;75.80;;;34.63;;
54406;SDS011;40313;50.308;30.374;2023-02-11T09:59:35;64.85;;;31.13;;
54406;SDS011;40313;50.308;30.374;2023-02-11T10:02:03;58.90;;;31.20;;
54406;SDS011;40313;50.308;30.374;2023-02-11T10:12:22;52.88;;;29.88;;
54406;SDS011;40313;50.308;30.374;2023-02-11T10:17:49;58.38;;;30.67;;
54406;SDS011;40313;50.308;30.374;2023-02-11T10:20:28;58.40;;;30.23;;
54406;SDS011;40313;50.308;30.374;2023-02-11T10:22:59;58.03;;;29.70;;
54406;SDS011;40313;50.308;30.374;2023-02-11T10:25:29;55.95;;;31.90;;
54406;SDS011;40313;50.308;30.374;2023-02-11T10:52:52;60.72;;;32.53;;
54406;SDS011;40313;50.308;30.374;2023-02-11T10:55:37;53.72;;;30.67;;
54406;SDS011;40313;50.308;30.374;2023-02-11T10:58:04;49.88;;;29.98;;
54406;SDS011;40313;50.308;30.374;2023-02-11T11:00:32;55.13;;;29.55;;
54406;SDS011;40313;50.308;30.374;2023-02-11T11:03:03;50.28;;;31.90;;
54406;SDS011;40313;50.308;30.374;2023-02-11T11:05:33;54.90;;;30.00;;
54406;SDS011;40313;50.308;30.374;2023-02-11T11:08:03;54.22;;;30.33;;
54406;SDS011;40313;50.308;30.374;2023-02-11T11:35:56;53.47;;;30.10;;
54406;SDS011;40313;50.308;30.374;2023-02-11T11:38:27;50.22;;;30.45;;
54406;SDS011;40313;50.308;30.374;2023-02-11T11:41:14;52.03;;;29.80;;
54406;SDS011;40313;50.308;30.374;2023-02-11T11:43:55;52.00;;;31.35;;
54406;SDS011;40313;50.308;30.374;2023-02-11T11:46:25;53.83;;;32.00;;
54406;SDS011;40313;50.308;30.374;2023-02-11T11:48:55;51.00;;;30.73;;
54406;SDS011;40313;50.308;30.374;2023-02-11T11:51:26;64.75;;;31.48;;
54406;SDS011;40313;50.308;30.374;2023-02-11T11:53:55;63.33;;;33.88;;
54406;SDS011;40313;50.308;30.374;2023-02-11T11:56:26;57.83;;;34.08;;
54406;SDS011;40313;50.308;30.374;2023-02-11T11:58:55;66.28;;;35.13;;
54406;SDS011;40313;50.308;30.374;2023-02-11T12:01:25;65.75;;;33.80;;
54406;SDS011;40313;50.308;30.374;2023-02-11T12:04:10;57.67;;;34.25;;
54406;SDS011;40313;50.308;30.374;2023-02-11T12:06:49;59.22;;;34.70;;
54406;SDS011;40313;50.308;30.374;2023-02-11T12:09:28;58.10;;;33.45;;
54406;SDS011;40313;50.308;30.374;2023-02-11T12:12:05;53.67;;;32.38;;
54406;SDS011;40313;50.308;30.374;2023-02-11T12:14:45;55.00;;;33.50;;
54406;SDS011;40313;50.308;30.374;2023-02-11T12:17:23;55.20;;;31.17;;
54406;SDS011;40313;50.308;30.374;2023-02-11T12:20:11;50.58;;;30.63;;
54406;SDS011;40313;50.308;30.374;2023-02-11T12:22:55;55.72;;;32.60;;
54406;SDS011;40313;50.308;30.374;2023-02-11T12:25:42;52.53;;;30.05;;
54406;SDS011;40313;50.308;30.374;2023-02-11T12:28:20;50.97;;;27.17;;
54406;SDS011;40313;50.308;30.374;2023-02-11T12:31:00;50.55;;;26.20;;
54406;SDS011;40313;50.308;30.374;2023-02-11T12:33:45;51.00;;;27.35;;
54406;SDS011;40313;50.308;30.374;2023-02-11T12:36:31;57.22;;;28.25;;
54406;SDS011;40313;50.308;30.374;2023-02-11T12:39:12;48.80;;;28.40;;
54406;SDS011;40313;50.308;30.374;2023-02-11T12:41:56;51.53;;;27.85;;
54406;SDS011;40313;50.308;30.374;2023-02-11T12:45:06;46.83;;;27.05;;
54406;SDS011;40313;50.308;30.374;2023-02-11T12:47:47;48.78;;;28.70;;
54406;SDS011;40313;50.308;30.374;2023-02-11T12:50:24;50.97;;;27.48;;
54406;SDS011;40313;50.308;30.374;2023-02-11T12:53:01;51.47;;;28.00;;
54406;SDS011;40313;50.308;30.374;2023-02-11T12:58:13;48.55;;;26.90;;
54406;SDS011;40313;50.308;30.374;2023-02-11T13:00:45;39.20;;;24.35;;
54406;SDS011;40313;50.308;30.374;2023-02-11T13:46:22;20.45;;;13.55;;
54406;SDS011;40313;50.308;30.374;2023-02-11T13:48:49;27.73;;;14.25;;
54406;SDS011;40313;50.308;30.374;2023-02-11T13:51:18;28.67;;;15.65;;
54406;SDS011;40313;50.308;30.374;2023-02-11T13:54:00;24.60;;;15.75;;
54406;SDS011;40313;50.308;30.374;2023-02-11T16:25:16;29.05;;;20.92;;
54406;SDS011;40313;50.308;30.374;2023-02-11T16:27:46;49.08;;;20.90;;
54406;SDS011;40313;50.308;30.374;2023-02-11T16:30:21;33.72;;;20.38;;
54406;SDS011;40313;50.308;30.374;2023-02-11T16:32:51;33.80;;;20.70;;
54406;SDS011;40313;50.308;30.374;2023-02-11T16:35:18;30.38;;;17.27;;
54406;SDS011;40313;50.308;30.374;2023-02-11T16:37:45;24.38;;;20.20;;
54406;SDS011;40313;50.308;30.374;2023-02-11T16:40:13;28.50;;;19.45;;
54406;SDS011;40313;50.308;30.374;2023-02-11T16:42:40;28.75;;;19.63;;
54406;SDS011;40313;50.308;30.374;2023-02-11T16:45:06;28.70;;;19.63;;
54406;SDS011;40313;50.308;30.374;2023-02-11T16:47:34;28.27;;;19.20;;
54406;SDS011;40313;50.308;30.374;2023-02-11T16:50:05;27.05;;;18.60;;
54406;SDS011;40313;50.308;30.374;2023-02-11T16:52:34;27.15;;;18.92;;
54406;SDS011;40313;50.308;30.374;2023-02-11T16:55:01;30.00;;;18.80;;
54406;SDS011;40313;50.308;30.374;2023-02-11T16:57:30;36.85;;;19.83;;
54406;SDS011;40313;50.308;30.374;2023-02-11T16:59:57;40.05;;;21.75;;
54406;SDS011;40313;50.308;30.374;2023-02-11T17:02:24;34.05;;;21.15;;
54406;SDS011;40313;50.308;30.374;2023-02-11T17:19:32;26.23;;;17.85;;
54406;SDS011;40313;50.308;30.374;2023-02-11T17:21:58;21.40;;;17.52;;
54406;SDS011;40313;50.308;30.374;2023-02-11T17:24:25;34.70;;;18.13;;
